sensor_id;sensor_type;location;lat;lon;timestamp;pressure;altitude;pressure_sealevel;temperature;humidity
13407;BME280;6774;48.208;10.766;2023-03-14T00:00:22;94122.19;;;10.44;84.13
13407;BME280;6774;48.208;10.766;2023-03-14T00:02:52;94123.91;;;10.32;85.18
13407;BME280;6774;48.208;10.766;2023-03-14T00:05:20;94134.28;;;10.34;86.08
13407;BME280;6774;48.208;10.766;2023-03-14T00:07:47;94136.00;;;10.40;86.30
13407;BME280;6774;48.208;10.766;2023-03-14T00:10:15;94141.97;;;10.53;86.28
13407;BME280;6774;48.208;10.766;2023-03-14T00:12:44;94131.81;;;10.50;86.20
13407;BME280;6774;48.208;10.766;2023-03-14T00:15:12;94130.22;;;10.49;86.16
13407;BME280;6774;48.208;10.766;2023-03-14T00:17:43;94126.19;;;10.47;86.91
13407;BME280;6774;48.208;10.766;2023-03-14T00:20:11;94106.88;;;10.35;87.42
13407;BME280;6774;48.208;10.766;2023-03-14T00:22:40;94112.66;;;10.25;88.19
13407;BME280;6774;48.208;10.766;2023-03-14T00:25:10;94120.66;;;10.12;88.23
13407;BME280;6774;48.208;10.766;2023-03-14T00:27:38;94122.00;;;10.21;88.50
13407;BME280;6774;48.208;10.766;2023-03-14T00:30:06;94142.28;;;10.20;88.14
13407;BME280;6774;48.208;10.766;2023-03-14T00:32:35;94155.59;;;10.07;88.25
13407;BME280;6774;48.208;10.766;2023-03-14T00:35:05;94154.06;;;10.18;87.02
13407;BME280;6774;48.208;10.766;2023-03-14T00:37:33;94156.31;;;10.14;87.40
13407;BME280;6774;48.208;10.766;2023-03-14T00:40:00;94156.16;;;10.34;86.10
13407;BME280;6774;48.208;10.766;2023-03-14T00:42:32;94159.16;;;10.38;86.41
13407;BME280;6774;48.208;10.766;2023-03-14T00:45:00;94165.75;;;10.29;86.91
13407;BME280;6774;48.208;10.766;2023-03-14T00:47:28;94159.84;;;10.08;88.00
13407;BME280;6774;48.208;10.766;2023-03-14T00:49:56;94158.72;;;9.97;88.84
13407;BME280;6774;48.208;10.766;2023-03-14T00:52:25;94160.19;;;10.12;89.03
13407;BME280;6774;48.208;10.766;2023-03-14T00:54:53;94158.28;;;10.01;89.23
13407;BME280;6774;48.208;10.766;2023-03-14T00:57:20;94161.50;;;10.03;89.71
13407;BME280;6774;48.208;10.766;2023-03-14T00:59:48;94163.06;;;9.85;89.33
13407;BME280;6774;48.208;10.766;2023-03-14T01:02:16;94164.63;;;9.68;90.41
13407;BME280;6774;48.208;10.766;2023-03-14T01:04:44;94172.34;;;9.69;89.77
13407;BME280;6774;48.208;10.766;2023-03-14T01:07:12;94197.63;;;9.46;90.97
13407;BME280;6774;48.208;10.766;2023-03-14T01:09:41;94188.78;;;9.33;91.52
13407;BME280;6774;48.208;10.766;2023-03-14T01:12:08;94195.66;;;9.34;92.56
13407;BME280;6774;48.208;10.766;2023-03-14T01:14:36;94200.59;;;9.24;93.05
13407;BME280;6774;48.208;10.766;2023-03-14T01:17:04;94182.81;;;9.13;93.10
13407;BME280;6774;48.208;10.766;2023-03-14T01:19:32;94197.78;;;9.19;93.71
13407;BME280;6774;48.208;10.766;2023-03-14T01:21:59;94195.38;;;9.11;93.96
13407;BME280;6774;48.208;10.766;2023-03-14T01:24:27;94207.97;;;9.02;94.49
13407;BME280;6774;48.208;10.766;2023-03-14T01:26:57;94198.19;;;9.16;93.91
13407;BME280;6774;48.208;10.766;2023-03-14T01:29:26;94195.72;;;9.21;94.56
13407;BME280;6774;48.208;10.766;2023-03-14T01:31:54;94192.59;;;9.06;94.21
13407;BME280;6774;48.208;10.766;2023-03-14T01:34:22;94188.41;;;9.23;93.89
13407;BME280;6774;48.208;10.766;2023-03-14T01:36:50;94185.19;;;9.21;93.88
13407;BME280;6774;48.208;10.766;2023-03-14T01:39:18;94177.66;;;9.31;93.76
13407;BME280;6774;48.208;10.766;2023-03-14T01:41:46;94160.56;;;9.40;93.30
13407;BME280;6774;48.208;10.766;2023-03-14T01:44:16;94136.28;;;9.38;92.91
13407;BME280;6774;48.208;10.766;2023-03-14T01:46:45;94105.25;;;9.47;92.35
13407;BME280;6774;48.208;10.766;2023-03-14T01:49:21;94090.16;;;9.61;92.27
13407;BME280;6774;48.208;10.766;2023-03-14T01:52:02;94083.69;;;9.57;91.35
13407;BME280;6774;48.208;10.766;2023-03-14T01:54:36;94075.06;;;9.68;91.14
13407;BME280;6774;48.208;10.766;2023-03-14T01:57:08;94050.66;;;9.79;91.28
13407;BME280;6774;48.208;10.766;2023-03-14T01:59:41;94014.59;;;9.80;90.03
13407;BME280;6774;48.208;10.766;2023-03-14T02:02:11;93989.19;;;9.67;90.14
13407;BME280;6774;48.208;10.766;2023-03-14T02:04:41;93968.19;;;9.60;89.95
13407;BME280;6774;48.208;10.766;2023-03-14T02:07:14;93937.19;;;9.62;89.57
13407;BME280;6774;48.208;10.766;2023-03-14T02:09:54;93949.03;;;9.72;89.98
13407;BME280;6774;48.208;10.766;2023-03-14T02:12:27;93969.66;;;9.75;88.91
13407;BME280;6774;48.208;10.766;2023-03-14T02:15:15;93992.84;;;9.66;89.81
13407;BME280;6774;48.208;10.766;2023-03-14T02:17:58;93992.09;;;9.59;89.77
13407;BME280;6774;48.208;10.766;2023-03-14T02:20:53;93989.75;;;9.87;89.08
13407;BME280;6774;48.208;10.766;2023-03-14T02:23:31;93998.00;;;9.79;88.94
13407;BME280;6774;48.208;10.766;2023-03-14T02:26:05;93994.97;;;9.76;89.77
13407;BME280;6774;48.208;10.766;2023-03-14T02:28:37;94007.66;;;9.24;90.93
13407;BME280;6774;48.208;10.766;2023-03-14T02:31:05;93998.66;;;9.50;90.53
13407;BME280;6774;48.208;10.766;2023-03-14T02:33:37;94004.84;;;9.62;89.84
13407;BME280;6774;48.208;10.766;2023-03-14T02:36:09;94002.06;;;9.57;90.02
13407;BME280;6774;48.208;10.766;2023-03-14T02:38:45;94000.63;;;9.61;89.40
13407;BME280;6774;48.208;10.766;2023-03-14T02:41:15;93993.84;;;9.47;89.56
13407;BME280;6774;48.208;10.766;2023-03-14T02:43:52;93990.56;;;9.33;89.38
13407;BME280;6774;48.208;10.766;2023-03-14T02:46:21;93998.88;;;9.30;89.74
13407;BME280;6774;48.208;10.766;2023-03-14T02:48:51;93990.19;;;9.48;89.02
13407;BME280;6774;48.208;10.766;2023-03-14T02:51:21;93988.88;;;9.57;87.87
13407;BME280;6774;48.208;10.766;2023-03-14T02:53:50;93993.53;;;9.36;88.39
13407;BME280;6774;48.208;10.766;2023-03-14T02:56:20;93979.72;;;9.41;88.39
13407;BME280;6774;48.208;10.766;2023-03-14T02:58:48;93978.06;;;9.47;87.58
13407;BME280;6774;48.208;10.766;2023-03-14T03:01:56;93972.53;;;9.30;87.72
13407;BME280;6774;48.208;10.766;2023-03-14T03:04:25;93964.59;;;9.36;86.69
13407;BME280;6774;48.208;10.766;2023-03-14T03:06:53;93978.84;;;9.47;86.00
13407;BME280;6774;48.208;10.766;2023-03-14T03:09:20;93973.88;;;9.57;85.87
13407;BME280;6774;48.208;10.766;2023-03-14T03:11:50;93981.38;;;9.60;85.71
13407;BME280;6774;48.208;10.766;2023-03-14T03:14:21;93986.19;;;9.45;86.16
13407;BME280;6774;48.208;10.766;2023-03-14T03:16:49;93977.00;;;9.29;86.82
13407;BME280;6774;48.208;10.766;2023-03-14T03:19:19;93988.59;;;9.22;87.01
13407;BME280;6774;48.208;10.766;2023-03-14T03:21:47;93986.69;;;9.35;86.87
13407;BME280;6774;48.208;10.766;2023-03-14T03:24:15;93975.75;;;9.32;86.17
13407;BME280;6774;48.208;10.766;2023-03-14T03:26:42;93971.00;;;9.22;86.25
13407;BME280;6774;48.208;10.766;2023-03-14T03:29:10;93960.91;;;9.19;85.89
13407;BME280;6774;48.208;10.766;2023-03-14T03:31:38;93964.25;;;9.08;85.95
13407;BME280;6774;48.208;10.766;2023-03-14T03:34:06;93956.19;;;9.03;85.94
13407;BME280;6774;48.208;10.766;2023-03-14T03:36:35;93950.94;;;9.03;85.33
13407;BME280;6774;48.208;10.766;2023-03-14T03:39:03;93939.25;;;8.99;85.77
13407;BME280;6774;48.208;10.766;2023-03-14T03:41:31;93943.47;;;9.00;85.62
13407;BME280;6774;48.208;10.766;2023-03-14T03:44:00;93943.63;;;9.05;86.05
13407;BME280;6774;48.208;10.766;2023-03-14T03:46:28;93950.34;;;9.01;85.88
13407;BME280;6774;48.208;10.766;2023-03-14T03:48:56;93945.97;;;9.13;85.39
13407;BME280;6774;48.208;10.766;2023-03-14T03:51:26;93945.63;;;9.09;85.70
13407;BME280;6774;48.208;10.766;2023-03-14T03:53:57;93945.25;;;9.06;85.04
13407;BME280;6774;48.208;10.766;2023-03-14T03:56:31;93955.59;;;8.76;86.58
13407;BME280;6774;48.208;10.766;2023-03-14T03:58:59;93956.31;;;8.90;86.12
13407;BME280;6774;48.208;10.766;2023-03-14T04:01:27;93968.44;;;8.91;85.51
13407;BME280;6774;48.208;10.766;2023-03-14T04:03:57;93964.34;;;8.95;85.15
13407;BME280;6774;48.208;10.766;2023-03-14T04:06:26;93962.69;;;9.00;84.81
13407;BME280;6774;48.208;10.766;2023-03-14T04:08:58;93958.94;;;9.15;84.10
13407;BME280;6774;48.208;10.766;2023-03-14T04:11:34;93964.25;;;9.08;84.85
13407;BME280;6774;48.208;10.766;2023-03-14T04:14:23;93975.31;;;8.92;84.56
13407;BME280;6774;48.208;10.766;2023-03-14T04:17:08;93960.31;;;9.17;84.69
13407;BME280;6774;48.208;10.766;2023-03-14T04:19:36;93956.50;;;9.13;83.99
13407;BME280;6774;48.208;10.766;2023-03-14T04:22:05;93950.16;;;8.96;84.85
13407;BME280;6774;48.208;10.766;2023-03-14T04:24:43;93954.97;;;9.05;83.88
13407;BME280;6774;48.208;10.766;2023-03-14T04:27:11;93957.91;;;8.91;85.04
13407;BME280;6774;48.208;10.766;2023-03-14T04:29:42;93933.53;;;9.02;84.01
13407;BME280;6774;48.208;10.766;2023-03-14T04:32:13;93929.97;;;8.96;83.26
13407;BME280;6774;48.208;10.766;2023-03-14T04:34:41;93941.69;;;8.94;83.00
13407;BME280;6774;48.208;10.766;2023-03-14T04:37:09;93936.91;;;8.84;83.76
13407;BME280;6774;48.208;10.766;2023-03-14T04:39:41;93930.31;;;9.00;83.77
13407;BME280;6774;48.208;10.766;2023-03-14T04:42:23;93925.81;;;9.07;83.13
13407;BME280;6774;48.208;10.766;2023-03-14T04:44:51;93933.41;;;8.97;83.25
13407;BME280;6774;48.208;10.766;2023-03-14T04:47:21;93926.63;;;9.07;82.50
13407;BME280;6774;48.208;10.766;2023-03-14T04:49:50;93918.72;;;8.82;83.14
13407;BME280;6774;48.208;10.766;2023-03-14T04:52:18;93908.78;;;8.84;83.92
13407;BME280;6774;48.208;10.766;2023-03-14T04:54:46;93911.72;;;8.95;83.25
13407;BME280;6774;48.208;10.766;2023-03-14T04:57:15;93914.75;;;8.73;82.97
13407;BME280;6774;48.208;10.766;2023-03-14T04:59:45;93898.84;;;8.87;83.42
13407;BME280;6774;48.208;10.766;2023-03-14T05:02:36;93898.53;;;8.76;83.21
13407;BME280;6774;48.208;10.766;2023-03-14T05:05:25;93899.16;;;8.78;83.17
13407;BME280;6774;48.208;10.766;2023-03-14T05:08:05;93893.59;;;8.87;83.29
13407;BME280;6774;48.208;10.766;2023-03-14T05:10:56;93892.97;;;8.66;83.47
13407;BME280;6774;48.208;10.766;2023-03-14T05:13:42;93899.44;;;8.70;83.06
13407;BME280;6774;48.208;10.766;2023-03-14T05:16:26;93881.91;;;8.82;83.49
13407;BME280;6774;48.208;10.766;2023-03-14T05:19:03;93887.97;;;8.58;84.26
13407;BME280;6774;48.208;10.766;2023-03-14T05:21:56;93877.81;;;8.43;84.78
13407;BME280;6774;48.208;10.766;2023-03-14T05:24:45;93870.59;;;8.57;83.64
13407;BME280;6774;48.208;10.766;2023-03-14T05:27:35;93870.00;;;8.55;83.84
13407;BME280;6774;48.208;10.766;2023-03-14T05:30:26;93878.13;;;8.53;84.12
13407;BME280;6774;48.208;10.766;2023-03-14T05:33:08;93866.38;;;8.56;83.37
13407;BME280;6774;48.208;10.766;2023-03-14T05:35:43;93864.44;;;8.45;84.09
13407;BME280;6774;48.208;10.766;2023-03-14T05:38:29;93858.38;;;8.44;84.05
13407;BME280;6774;48.208;10.766;2023-03-14T05:41:29;93857.56;;;8.44;84.70
13407;BME280;6774;48.208;10.766;2023-03-14T05:44:16;93852.81;;;8.27;84.23
13407;BME280;6774;48.208;10.766;2023-03-14T05:47:04;93846.84;;;8.45;83.88
13407;BME280;6774;48.208;10.766;2023-03-14T05:49:54;93848.34;;;8.35;83.93
13407;BME280;6774;48.208;10.766;2023-03-14T05:52:40;93841.81;;;8.44;83.34
13407;BME280;6774;48.208;10.766;2023-03-14T05:55:30;93844.31;;;8.57;83.14
13407;BME280;6774;48.208;10.766;2023-03-14T05:58:09;93847.25;;;8.67;82.47
13407;BME280;6774;48.208;10.766;2023-03-14T06:00:57;93842.13;;;8.54;82.54
13407;BME280;6774;48.208;10.766;2023-03-14T06:03:38;93832.66;;;8.71;82.52
13407;BME280;6774;48.208;10.766;2023-03-14T06:06:09;93831.09;;;8.64;82.62
13407;BME280;6774;48.208;10.766;2023-03-14T06:08:37;93832.72;;;8.65;83.08
13407;BME280;6774;48.208;10.766;2023-03-14T06:11:06;93828.13;;;8.60;83.57
13407;BME280;6774;48.208;10.766;2023-03-14T06:13:34;93831.63;;;8.72;82.56
13407;BME280;6774;48.208;10.766;2023-03-14T06:16:05;93821.13;;;8.91;82.39
13407;BME280;6774;48.208;10.766;2023-03-14T06:18:33;93819.94;;;8.87;82.95
13407;BME280;6774;48.208;10.766;2023-03-14T06:21:01;93815.13;;;8.83;82.41
13407;BME280;6774;48.208;10.766;2023-03-14T06:23:30;93813.97;;;8.79;82.59
13407;BME280;6774;48.208;10.766;2023-03-14T06:25:59;93803.69;;;8.96;82.71
13407;BME280;6774;48.208;10.766;2023-03-14T06:28:27;93796.72;;;9.02;82.28
13407;BME280;6774;48.208;10.766;2023-03-14T06:30:59;93798.84;;;8.93;81.48
13407;BME280;6774;48.208;10.766;2023-03-14T06:33:31;93801.75;;;8.85;82.30
13407;BME280;6774;48.208;10.766;2023-03-14T06:36:00;93804.16;;;8.87;82.00
13407;BME280;6774;48.208;10.766;2023-03-14T06:38:29;93801.97;;;8.83;82.22
13407;BME280;6774;48.208;10.766;2023-03-14T06:41:03;93804.16;;;9.05;81.81
13407;BME280;6774;48.208;10.766;2023-03-14T06:43:36;93820.84;;;8.80;81.74
13407;BME280;6774;48.208;10.766;2023-03-14T06:46:05;93823.03;;;9.02;81.50
13407;BME280;6774;48.208;10.766;2023-03-14T06:48:36;93826.16;;;8.92;81.82
13407;BME280;6774;48.208;10.766;2023-03-14T06:51:05;93833.56;;;9.02;81.24
13407;BME280;6774;48.208;10.766;2023-03-14T06:53:35;93844.09;;;9.20;80.46
13407;BME280;6774;48.208;10.766;2023-03-14T06:56:04;93845.56;;;9.16;80.13
13407;BME280;6774;48.208;10.766;2023-03-14T06:58:33;93844.66;;;9.22;79.99
13407;BME280;6774;48.208;10.766;2023-03-14T07:01:04;93852.72;;;9.27;79.79
13407;BME280;6774;48.208;10.766;2023-03-14T07:03:39;93831.94;;;9.37;80.19
13407;BME280;6774;48.208;10.766;2023-03-14T07:06:07;93834.06;;;9.29;80.40
13407;BME280;6774;48.208;10.766;2023-03-14T07:08:37;93849.94;;;9.22;80.41
13407;BME280;6774;48.208;10.766;2023-03-14T07:11:06;93842.31;;;9.14;80.68
13407;BME280;6774;48.208;10.766;2023-03-14T07:13:34;93838.69;;;9.15;80.60
13407;BME280;6774;48.208;10.766;2023-03-14T07:16:05;93839.78;;;9.07;80.96
13407;BME280;6774;48.208;10.766;2023-03-14T07:18:35;93842.53;;;9.31;79.60
13407;BME280;6774;48.208;10.766;2023-03-14T07:21:05;93845.09;;;9.19;80.06
13407;BME280;6774;48.208;10.766;2023-03-14T07:23:33;93841.63;;;9.07;79.42
13407;BME280;6774;48.208;10.766;2023-03-14T07:26:02;93846.44;;;9.10;79.41
13407;BME280;6774;48.208;10.766;2023-03-14T07:28:32;93843.72;;;9.35;78.13
13407;BME280;6774;48.208;10.766;2023-03-14T07:31:07;93837.19;;;9.37;78.64
13407;BME280;6774;48.208;10.766;2023-03-14T07:33:37;93837.47;;;9.48;78.06
13407;BME280;6774;48.208;10.766;2023-03-14T07:36:05;93841.81;;;9.60;78.26
13407;BME280;6774;48.208;10.766;2023-03-14T07:38:33;93853.16;;;9.43;78.84
13407;BME280;6774;48.208;10.766;2023-03-14T07:41:13;93848.09;;;9.41;78.73
13407;BME280;6774;48.208;10.766;2023-03-14T07:43:59;93847.88;;;9.43;78.62
13407;BME280;6774;48.208;10.766;2023-03-14T07:46:27;93848.44;;;9.63;78.16
13407;BME280;6774;48.208;10.766;2023-03-14T07:48:55;93848.28;;;9.58;78.46
13407;BME280;6774;48.208;10.766;2023-03-14T07:51:22;93843.13;;;9.51;78.45
13407;BME280;6774;48.208;10.766;2023-03-14T07:53:50;93844.19;;;9.62;78.41
13407;BME280;6774;48.208;10.766;2023-03-14T07:56:19;93845.88;;;9.56;77.52
13407;BME280;6774;48.208;10.766;2023-03-14T07:58:47;93848.09;;;9.89;78.04
13407;BME280;6774;48.208;10.766;2023-03-14T08:01:14;93848.97;;;9.83;78.23
13407;BME280;6774;48.208;10.766;2023-03-14T08:03:42;93863.50;;;9.74;77.74
13407;BME280;6774;48.208;10.766;2023-03-14T08:06:10;93847.06;;;9.90;77.72
13407;BME280;6774;48.208;10.766;2023-03-14T08:08:38;93846.63;;;10.05;76.29
13407;BME280;6774;48.208;10.766;2023-03-14T08:11:07;93841.75;;;10.09;76.56
13407;BME280;6774;48.208;10.766;2023-03-14T08:13:37;93849.03;;;10.25;76.03
13407;BME280;6774;48.208;10.766;2023-03-14T08:16:06;93850.34;;;10.16;77.09
13407;BME280;6774;48.208;10.766;2023-03-14T08:18:34;93853.56;;;10.18;76.78
13407;BME280;6774;48.208;10.766;2023-03-14T08:21:01;93854.75;;;10.22;76.55
13407;BME280;6774;48.208;10.766;2023-03-14T08:23:29;93851.50;;;10.20;76.49
13407;BME280;6774;48.208;10.766;2023-03-14T08:25:57;93848.63;;;10.51;74.79
13407;BME280;6774;48.208;10.766;2023-03-14T08:28:25;93841.53;;;10.64;75.24
13407;BME280;6774;48.208;10.766;2023-03-14T08:30:58;93850.22;;;10.76;74.66
13407;BME280;6774;48.208;10.766;2023-03-14T08:33:28;93847.25;;;10.61;75.25
13407;BME280;6774;48.208;10.766;2023-03-14T08:35:57;93853.81;;;10.70;75.07
13407;BME280;6774;48.208;10.766;2023-03-14T08:38:26;93848.97;;;10.67;74.77
13407;BME280;6774;48.208;10.766;2023-03-14T08:40:58;93854.00;;;10.57;76.27
13407;BME280;6774;48.208;10.766;2023-03-14T08:43:26;93848.72;;;10.68;76.21
13407;BME280;6774;48.208;10.766;2023-03-14T08:45:58;93850.13;;;10.71;75.93
13407;BME280;6774;48.208;10.766;2023-03-14T08:48:27;93846.78;;;10.87;75.42
13407;BME280;6774;48.208;10.766;2023-03-14T08:50:55;93858.25;;;11.04;74.61
13407;BME280;6774;48.208;10.766;2023-03-14T08:53:23;93839.91;;;10.98;75.46
13407;BME280;6774;48.208;10.766;2023-03-14T08:55:52;93845.06;;;11.04;74.41
13407;BME280;6774;48.208;10.766;2023-03-14T08:58:21;93835.97;;;11.24;73.47
13407;BME280;6774;48.208;10.766;2023-03-14T09:00:50;93836.19;;;11.34;72.64
13407;BME280;6774;48.208;10.766;2023-03-14T09:03:19;93823.34;;;11.26;69.83
13407;BME280;6774;48.208;10.766;2023-03-14T09:05:49;93843.31;;;11.22;71.59
13407;BME280;6774;48.208;10.766;2023-03-14T09:08:17;93823.81;;;11.23;71.71
13407;BME280;6774;48.208;10.766;2023-03-14T09:10:44;93824.38;;;11.13;70.99
13407;BME280;6774;48.208;10.766;2023-03-14T09:13:12;93825.22;;;10.67;71.06
13407;BME280;6774;48.208;10.766;2023-03-14T09:15:40;93830.63;;;11.07;70.91
13407;BME280;6774;48.208;10.766;2023-03-14T09:18:08;93826.34;;;11.18;69.46
13407;BME280;6774;48.208;10.766;2023-03-14T09:20:39;93836.25;;;11.51;72.69
13407;BME280;6774;48.208;10.766;2023-03-14T09:23:08;93812.38;;;11.86;70.06
13407;BME280;6774;48.208;10.766;2023-03-14T09:25:35;93793.22;;;12.41;68.77
13407;BME280;6774;48.208;10.766;2023-03-14T09:28:03;93808.94;;;12.31;67.64
13407;BME280;6774;48.208;10.766;2023-03-14T09:30:31;93798.84;;;12.28;67.58
13407;BME280;6774;48.208;10.766;2023-03-14T09:32:59;93826.16;;;12.16;67.39
13407;BME280;6774;48.208;10.766;2023-03-14T09:35:28;93817.25;;;12.22;67.13
13407;BME280;6774;48.208;10.766;2023-03-14T09:37:57;93806.44;;;12.41;66.01
13407;BME280;6774;48.208;10.766;2023-03-14T09:40:31;93809.34;;;12.56;66.97
13407;BME280;6774;48.208;10.766;2023-03-14T09:42:59;93823.94;;;11.96;65.70
13407;BME280;6774;48.208;10.766;2023-03-14T09:45:29;93831.16;;;11.73;67.56
13407;BME280;6774;48.208;10.766;2023-03-14T09:47:58;93811.75;;;11.95;67.53
13407;BME280;6774;48.208;10.766;2023-03-14T09:50:31;93834.00;;;11.83;66.77
13407;BME280;6774;48.208;10.766;2023-03-14T09:53:05;93814.09;;;11.92;68.10
13407;BME280;6774;48.208;10.766;2023-03-14T09:55:34;93790.19;;;11.87;67.19
13407;BME280;6774;48.208;10.766;2023-03-14T09:58:06;93828.09;;;11.92;67.94
13407;BME280;6774;48.208;10.766;2023-03-14T10:00:36;93842.28;;;12.32;68.30
13407;BME280;6774;48.208;10.766;2023-03-14T10:03:21;93830.16;;;12.19;66.21
13407;BME280;6774;48.208;10.766;2023-03-14T10:05:49;93842.44;;;11.96;68.08
13407;BME280;6774;48.208;10.766;2023-03-14T10:08:18;93835.72;;;11.89;65.58
13407;BME280;6774;48.208;10.766;2023-03-14T10:10:46;93835.00;;;12.39;65.89
13407;BME280;6774;48.208;10.766;2023-03-14T10:13:16;93819.94;;;12.56;67.36
13407;BME280;6774;48.208;10.766;2023-03-14T10:15:48;93828.56;;;12.68;66.48
13407;BME280;6774;48.208;10.766;2023-03-14T10:18:18;93826.41;;;12.65;66.09
13407;BME280;6774;48.208;10.766;2023-03-14T10:20:47;93832.75;;;12.64;65.89
13407;BME280;6774;48.208;10.766;2023-03-14T10:23:23;93830.50;;;12.56;67.71
13407;BME280;6774;48.208;10.766;2023-03-14T10:26:02;93825.34;;;13.00;67.48
13407;BME280;6774;48.208;10.766;2023-03-14T10:28:32;93827.63;;;13.52;65.69
13407;BME280;6774;48.208;10.766;2023-03-14T10:31:01;93821.25;;;13.97;64.75
13407;BME280;6774;48.208;10.766;2023-03-14T10:33:30;93850.94;;;13.93;63.39
13407;BME280;6774;48.208;10.766;2023-03-14T10:36:00;93832.06;;;13.90;64.78
13407;BME280;6774;48.208;10.766;2023-03-14T10:38:32;93833.06;;;14.11;63.27
13407;BME280;6774;48.208;10.766;2023-03-14T10:41:00;93840.53;;;13.65;63.85
13407;BME280;6774;48.208;10.766;2023-03-14T10:43:31;93835.53;;;13.08;64.28
13407;BME280;6774;48.208;10.766;2023-03-14T10:46:02;93846.28;;;12.85;65.02
13407;BME280;6774;48.208;10.766;2023-03-14T10:48:53;93848.69;;;12.69;65.32
13407;BME280;6774;48.208;10.766;2023-03-14T10:51:25;93846.69;;;12.76;65.79
13407;BME280;6774;48.208;10.766;2023-03-14T10:54:00;93849.09;;;12.61;66.80
13407;BME280;6774;48.208;10.766;2023-03-14T10:56:34;93833.47;;;12.43;66.74
13407;BME280;6774;48.208;10.766;2023-03-14T10:59:04;93842.28;;;12.32;66.36
13407;BME280;6774;48.208;10.766;2023-03-14T11:01:39;93835.47;;;12.36;66.03
13407;BME280;6774;48.208;10.766;2023-03-14T11:04:29;93822.88;;;12.43;65.10
13407;BME280;6774;48.208;10.766;2023-03-14T11:07:06;93831.84;;;12.42;67.40
13407;BME280;6774;48.208;10.766;2023-03-14T11:09:42;93828.25;;;12.48;64.95
13407;BME280;6774;48.208;10.766;2023-03-14T11:12:28;93826.41;;;12.65;65.14
13407;BME280;6774;48.208;10.766;2023-03-14T11:14:59;93820.47;;;12.92;64.09
13407;BME280;6774;48.208;10.766;2023-03-14T11:17:34;93830.03;;;12.59;64.18
13407;BME280;6774;48.208;10.766;2023-03-14T11:20:14;93823.38;;;12.40;64.60
13407;BME280;6774;48.208;10.766;2023-03-14T11:22:47;93826.31;;;12.94;66.27
13407;BME280;6774;48.208;10.766;2023-03-14T11:25:21;93842.16;;;12.72;65.69
13407;BME280;6774;48.208;10.766;2023-03-14T11:28:00;93824.72;;;12.93;66.65
13407;BME280;6774;48.208;10.766;2023-03-14T11:30:34;93848.25;;;12.72;65.34
13407;BME280;6774;48.208;10.766;2023-03-14T11:33:07;93842.69;;;12.57;65.83
13407;BME280;6774;48.208;10.766;2023-03-14T11:35:39;93854.44;;;12.33;66.58
13407;BME280;6774;48.208;10.766;2023-03-14T11:38:18;93847.38;;;12.21;66.93
13407;BME280;6774;48.208;10.766;2023-03-14T11:40:49;93829.91;;;12.20;68.71
13407;BME280;6774;48.208;10.766;2023-03-14T11:43:22;93834.66;;;12.18;67.59
13407;BME280;6774;48.208;10.766;2023-03-14T11:45:57;93848.16;;;12.05;65.82
13407;BME280;6774;48.208;10.766;2023-03-14T11:48:35;93841.63;;;12.41;65.37
13407;BME280;6774;48.208;10.766;2023-03-14T11:51:08;93859.91;;;12.43;65.58
13407;BME280;6774;48.208;10.766;2023-03-14T11:53:50;93853.47;;;12.22;66.75
13407;BME280;6774;48.208;10.766;2023-03-14T11:56:25;93840.03;;;12.91;64.65
13407;BME280;6774;48.208;10.766;2023-03-14T11:58:58;93849.56;;;12.41;66.57
13407;BME280;6774;48.208;10.766;2023-03-14T12:01:36;93857.06;;;12.16;66.80
13407;BME280;6774;48.208;10.766;2023-03-14T12:04:13;93849.75;;;12.06;67.35
13407;BME280;6774;48.208;10.766;2023-03-14T12:06:47;93860.22;;;11.73;67.62
13407;BME280;6774;48.208;10.766;2023-03-14T12:09:16;93842.41;;;12.08;67.42
13407;BME280;6774;48.208;10.766;2023-03-14T12:11:48;93848.63;;;12.02;66.95
13407;BME280;6774;48.208;10.766;2023-03-14T12:14:22;93849.44;;;12.03;67.09
13407;BME280;6774;48.208;10.766;2023-03-14T12:16:54;93837.63;;;12.39;68.49
13407;BME280;6774;48.208;10.766;2023-03-14T12:19:31;93852.53;;;12.62;67.04
13407;BME280;6774;48.208;10.766;2023-03-14T12:22:07;93857.03;;;12.28;66.67
13407;BME280;6774;48.208;10.766;2023-03-14T12:24:37;93832.47;;;12.15;66.94
13407;BME280;6774;48.208;10.766;2023-03-14T12:27:13;93855.69;;;12.13;67.44
13407;BME280;6774;48.208;10.766;2023-03-14T12:30:01;93852.88;;;12.03;67.68
13407;BME280;6774;48.208;10.766;2023-03-14T12:32:30;93863.69;;;11.61;68.26
13407;BME280;6774;48.208;10.766;2023-03-14T12:35:07;93868.81;;;11.28;70.17
13407;BME280;6774;48.208;10.766;2023-03-14T12:37:55;93859.75;;;11.12;70.72
13407;BME280;6774;48.208;10.766;2023-03-14T12:40:30;93879.16;;;11.18;71.38
13407;BME280;6774;48.208;10.766;2023-03-14T12:43:01;93886.63;;;10.97;71.35
13407;BME280;6774;48.208;10.766;2023-03-14T12:45:30;93875.25;;;11.08;71.52
13407;BME280;6774;48.208;10.766;2023-03-14T12:48:07;93882.84;;;11.17;71.96
13407;BME280;6774;48.208;10.766;2023-03-14T12:50:41;93886.16;;;11.12;71.26
13407;BME280;6774;48.208;10.766;2023-03-14T12:56:15;93883.28;;;10.90;71.51
13407;BME280;6774;48.208;10.766;2023-03-14T12:58:58;93894.50;;;10.86;72.69
13407;BME280;6774;48.208;10.766;2023-03-14T13:01:29;93914.66;;;10.57;72.13
13407;BME280;6774;48.208;10.766;2023-03-14T13:04:03;93943.19;;;10.48;72.81
13407;BME280;6774;48.208;10.766;2023-03-14T13:06:48;93931.34;;;10.27;73.93
13407;BME280;6774;48.208;10.766;2023-03-14T13:09:35;93914.25;;;10.30;75.05
13407;BME280;6774;48.208;10.766;2023-03-14T13:12:09;93935.44;;;10.23;74.64
13407;BME280;6774;48.208;10.766;2023-03-14T13:14:44;93935.47;;;9.86;76.16
13407;BME280;6774;48.208;10.766;2023-03-14T13:17:14;93918.56;;;9.76;76.92
13407;BME280;6774;48.208;10.766;2023-03-14T13:20:05;93943.75;;;9.72;77.22
13407;BME280;6774;48.208;10.766;2023-03-14T13:22:37;93959.91;;;9.75;77.51
13407;BME280;6774;48.208;10.766;2023-03-14T13:25:10;93962.72;;;9.44;79.14
13407;BME280;6774;48.208;10.766;2023-03-14T13:27:38;93957.13;;;9.33;80.43
13407;BME280;6774;48.208;10.766;2023-03-14T13:30:18;93961.75;;;9.13;81.91
13407;BME280;6774;48.208;10.766;2023-03-14T13:32:47;93982.56;;;8.96;84.13
13407;BME280;6774;48.208;10.766;2023-03-14T13:35:18;93984.31;;;8.77;85.81